sensor_id;sensor_type;location;lat;lon;timestamp;temperature;humidity
31799;DHT22;18374;51.136;3.502;2023-02-14T00:01:25;3.60;99.90
31799;DHT22;18374;51.136;3.502;2023-02-14T00:03:52;3.60;99.90
31799;DHT22;18374;51.136;3.502;2023-02-14T00:06:20;3.50;99.90
31799;DHT22;18374;51.136;3.502;2023-02-14T00:08:48;3.50;99.90
31799;DHT22;18374;51.136;3.502;2023-02-14T00:11:19;3.50;99.90
31799;DHT22;18374;51.136;3.502;2023-02-14T00:13:47;3.50;99.90
31799;DHT22;18374;51.136;3.502;2023-02-14T00:16:33;3.50;99.90
31799;DHT22;18374;51.136;3.502;2023-02-14T00:19:01;3.50;99.90
31799;DHT22;18374;51.136;3.502;2023-02-14T00:21:36;3.50;99.90
31799;DHT22;18374;51.136;3.502;2023-02-14T00:24:10;3.50;99.90
31799;DHT22;18374;51.136;3.502;2023-02-14T00:26:38;3.50;99.90
31799;DHT22;18374;51.136;3.502;2023-02-14T00:29:19;3.50;99.90
31799;DHT22;18374;51.136;3.502;2023-02-14T00:31:50;3.50;99.90
31799;DHT22;18374;51.136;3.502;2023-02-14T00:34:18;3.50;99.90
31799;DHT22;18374;51.136;3.502;2023-02-14T00:36:46;3.50;99.90
31799;DHT22;18374;51.136;3.502;2023-02-14T00:39:17;3.50;99.90
31799;DHT22;18374;51.136;3.502;2023-02-14T00:41:45;3.40;99.90
31799;DHT22;18374;51.136;3.502;2023-02-14T00:44:13;3.40;99.90
31799;DHT22;18374;51.136;3.502;2023-02-14T00:46:40;3.30;99.90
31799;DHT22;18374;51.136;3.502;2023-02-14T00:49:08;3.30;99.90
31799;DHT22;18374;51.136;3.502;2023-02-14T00:51:38;3.30;99.90
31799;DHT22;18374;51.136;3.502;2023-02-14T00:54:06;3.30;99.90
31799;DHT22;18374;51.136;3.502;2023-02-14T00:56:34;3.30;99.90
31799;DHT22;18374;51.136;3.502;2023-02-14T00:59:01;3.30;99.90
31799;DHT22;18374;51.136;3.502;2023-02-14T01:01:30;3.30;99.90
31799;DHT22;18374;51.136;3.502;2023-02-14T01:03:57;3.30;99.90
31799;DHT22;18374;51.136;3.502;2023-02-14T01:06:26;3.30;99.90
31799;DHT22;18374;51.136;3.502;2023-02-14T01:08:56;3.30;99.90
31799;DHT22;18374;51.136;3.502;2023-02-14T01:11:24;3.30;99.90
31799;DHT22;18374;51.136;3.502;2023-02-14T01:13:55;3.30;99.90
31799;DHT22;18374;51.136;3.502;2023-02-14T01:16:25;3.20;99.90
31799;DHT22;18374;51.136;3.502;2023-02-14T01:18:55;3.30;99.90
31799;DHT22;18374;51.136;3.502;2023-02-14T01:21:27;3.30;99.90
31799;DHT22;18374;51.136;3.502;2023-02-14T01:23:59;3.20;99.90
31799;DHT22;18374;51.136;3.502;2023-02-14T01:26:28;3.30;99.90
31799;DHT22;18374;51.136;3.502;2023-02-14T01:29:01;3.20;99.90
31799;DHT22;18374;51.136;3.502;2023-02-14T01:31:32;3.20;99.90
31799;DHT22;18374;51.136;3.502;2023-02-14T01:34:01;3.10;99.90
31799;DHT22;18374;51.136;3.502;2023-02-14T01:36:35;3.00;99.90
31799;DHT22;18374;51.136;3.502;2023-02-14T01:39:10;3.00;99.90
31799;DHT22;18374;51.136;3.502;2023-02-14T01:41:42;2.90;99.90
31799;DHT22;18374;51.136;3.502;2023-02-14T01:46:43;2.80;99.90
31799;DHT22;18374;51.136;3.502;2023-02-14T01:49:16;2.80;99.90
31799;DHT22;18374;51.136;3.502;2023-02-14T01:51:52;2.80;99.90
31799;DHT22;18374;51.136;3.502;2023-02-14T01:54:24;2.80;99.90
31799;DHT22;18374;51.136;3.502;2023-02-14T01:56:56;2.80;99.90
31799;DHT22;18374;51.136;3.502;2023-02-14T01:59:34;2.70;99.90
31799;DHT22;18374;51.136;3.502;2023-02-14T02:02:04;2.70;99.90
31799;DHT22;18374;51.136;3.502;2023-02-14T02:04:36;2.70;99.90
31799;DHT22;18374;51.136;3.502;2023-02-14T02:07:09;2.70;99.90
31799;DHT22;18374;51.136;3.502;2023-02-14T02:09:48;2.80;99.90
31799;DHT22;18374;51.136;3.502;2023-02-14T02:12:18;2.80;99.90
31799;DHT22;18374;51.136;3.502;2023-02-14T02:14:48;2.70;99.90
31799;DHT22;18374;51.136;3.502;2023-02-14T02:29:35;2.30;99.90
31799;DHT22;18374;51.136;3.502;2023-02-14T02:35:37;2.20;99.90
31799;DHT22;18374;51.136;3.502;2023-02-14T02:46:40;1.80;99.90
31799;DHT22;18374;51.136;3.502;2023-02-14T02:52:44;1.90;99.90
31799;DHT22;18374;51.136;3.502;2023-02-14T03:02:04;2.10;99.90
31799;DHT22;18374;51.136;3.502;2023-02-14T03:04:35;2.10;99.90
31799;DHT22;18374;51.136;3.502;2023-02-14T03:07:28;2.20;99.90
31799;DHT22;18374;51.136;3.502;2023-02-14T03:10:14;2.20;99.90
31799;DHT22;18374;51.136;3.502;2023-02-14T03:21:54;2.60;99.90
31799;DHT22;18374;51.136;3.502;2023-02-14T03:24:31;2.60;99.90
31799;DHT22;18374;51.136;3.502;2023-02-14T03:29:57;2.80;99.90
31799;DHT22;18374;51.136;3.502;2023-02-14T03:32:50;2.80;99.90
31799;DHT22;18374;51.136;3.502;2023-02-14T03:36:00;2.90;99.90
31799;DHT22;18374;51.136;3.502;2023-02-14T03:38:33;2.90;99.90
31799;DHT22;18374;51.136;3.502;2023-02-14T03:41:11;3.00;99.90
31799;DHT22;18374;51.136;3.502;2023-02-14T03:43:46;3.00;99.90
31799;DHT22;18374;51.136;3.502;2023-02-14T03:46:35;3.00;99.90
31799;DHT22;18374;51.136;3.502;2023-02-14T03:49:16;3.10;99.90
31799;DHT22;18374;51.136;3.502;2023-02-14T03:51:49;3.10;99.90
31799;DHT22;18374;51.136;3.502;2023-02-14T03:54:20;3.10;99.90
31799;DHT22;18374;51.136;3.502;2023-02-14T03:57:15;3.10;99.90
31799;DHT22;18374;51.136;3.502;2023-02-14T03:59:47;3.10;99.90
31799;DHT22;18374;51.136;3.502;2023-02-14T04:02:29;3.10;99.90
31799;DHT22;18374;51.136;3.502;2023-02-14T04:05:02;3.10;99.90
31799;DHT22;18374;51.136;3.502;2023-02-14T04:07:44;3.10;99.90
31799;DHT22;18374;51.136;3.502;2023-02-14T04:10:14;3.10;99.90
31799;DHT22;18374;51.136;3.502;2023-02-14T04:12:43;3.10;99.90
31799;DHT22;18374;51.136;3.502;2023-02-14T04:15:12;3.10;99.90
31799;DHT22;18374;51.136;3.502;2023-02-14T04:17:39;3.10;99.90
31799;DHT22;18374;51.136;3.502;2023-02-14T04:20:27;3.10;99.90
31799;DHT22;18374;51.136;3.502;2023-02-14T04:22:55;3.10;99.90
31799;DHT22;18374;51.136;3.502;2023-02-14T04:25:23;3.10;99.90
31799;DHT22;18374;51.136;3.502;2023-02-14T04:27:50;3.20;99.90
31799;DHT22;18374;51.136;3.502;2023-02-14T04:30:18;3.20;99.90
31799;DHT22;18374;51.136;3.502;2023-02-14T04:32:49;3.20;99.90
31799;DHT22;18374;51.136;3.502;2023-02-14T04:35:17;3.20;99.90
31799;DHT22;18374;51.136;3.502;2023-02-14T04:37:44;3.20;99.90
31799;DHT22;18374;51.136;3.502;2023-02-14T04:40:12;3.20;99.90
31799;DHT22;18374;51.136;3.502;2023-02-14T04:42:44;3.20;99.90
31799;DHT22;18374;51.136;3.502;2023-02-14T04:45:12;3.30;99.90
31799;DHT22;18374;51.136;3.502;2023-02-14T04:47:40;3.30;99.90
31799;DHT22;18374;51.136;3.502;2023-02-14T04:50:08;3.30;99.90
31799;DHT22;18374;51.136;3.502;2023-02-14T04:52:37;3.20;99.90
31799;DHT22;18374;51.136;3.502;2023-02-14T04:55:05;3.10;99.90
31799;DHT22;18374;51.136;3.502;2023-02-14T04:57:33;3.00;99.90
31799;DHT22;18374;51.136;3.502;2023-02-14T05:00:01;2.90;99.90
31799;DHT22;18374;51.136;3.502;2023-02-14T05:02:30;2.80;99.90
31799;DHT22;18374;51.136;3.502;2023-02-14T05:04:58;2.80;99.90
31799;DHT22;18374;51.136;3.502;2023-02-14T05:07:25;2.80;99.90
31799;DHT22;18374;51.136;3.502;2023-02-14T05:09:53;2.70;99.90
31799;DHT22;18374;51.136;3.502;2023-02-14T05:12:21;2.70;99.90
31799;DHT22;18374;51.136;3.502;2023-02-14T05:15:18;2.70;99.90
31799;DHT22;18374;51.136;3.502;2023-02-14T05:17:46;2.60;99.90
31799;DHT22;18374;51.136;3.502;2023-02-14T05:20:13;2.60;99.90
31799;DHT22;18374;51.136;3.502;2023-02-14T05:22:41;2.50;99.90
31799;DHT22;18374;51.136;3.502;2023-02-14T05:25:09;2.50;99.90
31799;DHT22;18374;51.136;3.502;2023-02-14T05:27:37;2.50;99.90
31799;DHT22;18374;51.136;3.502;2023-02-14T05:30:05;2.50;99.90
31799;DHT22;18374;51.136;3.502;2023-02-14T05:32:33;2.50;99.90
31799;DHT22;18374;51.136;3.502;2023-02-14T05:35:01;2.40;99.90
31799;DHT22;18374;51.136;3.502;2023-02-14T05:37:29;2.30;99.90
31799;DHT22;18374;51.136;3.502;2023-02-14T05:39:57;2.30;99.90
31799;DHT22;18374;51.136;3.502;2023-02-14T05:42:24;2.30;99.90
31799;DHT22;18374;51.136;3.502;2023-02-14T05:44:52;2.30;99.90
31799;DHT22;18374;51.136;3.502;2023-02-14T05:47:20;2.30;99.90
31799;DHT22;18374;51.136;3.502;2023-02-14T05:49:47;2.30;99.90
31799;DHT22;18374;51.136;3.502;2023-02-14T05:52:15;2.30;99.90
31799;DHT22;18374;51.136;3.502;2023-02-14T05:54:43;2.30;99.90
31799;DHT22;18374;51.136;3.502;2023-02-14T05:57:11;2.20;99.90
31799;DHT22;18374;51.136;3.502;2023-02-14T05:59:38;2.20;99.90
31799;DHT22;18374;51.136;3.502;2023-02-14T06:02:06;2.20;99.90
31799;DHT22;18374;51.136;3.502;2023-02-14T06:04:34;2.20;99.90
31799;DHT22;18374;51.136;3.502;2023-02-14T06:07:02;2.20;99.90
31799;DHT22;18374;51.136;3.502;2023-02-14T06:09:29;2.10;99.90
31799;DHT22;18374;51.136;3.502;2023-02-14T06:11:57;2.10;99.90
31799;DHT22;18374;51.136;3.502;2023-02-14T06:14:25;2.00;99.90
31799;DHT22;18374;51.136;3.502;2023-02-14T06:16:53;2.00;99.90
31799;DHT22;18374;51.136;3.502;2023-02-14T06:19:21;2.10;99.90
31799;DHT22;18374;51.136;3.502;2023-02-14T06:21:48;2.00;99.90
31799;DHT22;18374;51.136;3.502;2023-02-14T06:24:16;1.90;99.90
31799;DHT22;18374;51.136;3.502;2023-02-14T06:26:44;2.00;99.90
31799;DHT22;18374;51.136;3.502;2023-02-14T06:29:11;1.90;99.90
31799;DHT22;18374;51.136;3.502;2023-02-14T06:31:39;1.90;99.90
31799;DHT22;18374;51.136;3.502;2023-02-14T06:34:07;1.90;99.90
31799;DHT22;18374;51.136;3.502;2023-02-14T06:36:35;1.80;99.90
31799;DHT22;18374;51.136;3.502;2023-02-14T06:39:03;1.80;99.90
31799;DHT22;18374;51.136;3.502;2023-02-14T06:41:31;1.80;99.90
31799;DHT22;18374;51.136;3.502;2023-02-14T06:43:58;1.70;99.90
31799;DHT22;18374;51.136;3.502;2023-02-14T06:46:26;1.70;99.90
31799;DHT22;18374;51.136;3.502;2023-02-14T06:48:54;1.70;99.90
31799;DHT22;18374;51.136;3.502;2023-02-14T06:51:22;1.60;99.90
31799;DHT22;18374;51.136;3.502;2023-02-14T06:53:49;1.60;99.90
31799;DHT22;18374;51.136;3.502;2023-02-14T06:56:17;1.60;99.90
31799;DHT22;18374;51.136;3.502;2023-02-14T06:58:45;1.60;99.90
31799;DHT22;18374;51.136;3.502;2023-02-14T07:01:12;1.60;99.90
31799;DHT22;18374;51.136;3.502;2023-02-14T07:03:41;1.60;99.90
31799;DHT22;18374;51.136;3.502;2023-02-14T07:06:08;1.60;99.90
31799;DHT22;18374;51.136;3.502;2023-02-14T07:08:36;1.60;99.90
31799;DHT22;18374;51.136;3.502;2023-02-14T07:11:04;1.60;99.90
31799;DHT22;18374;51.136;3.502;2023-02-14T07:13:32;1.70;99.90
31799;DHT22;18374;51.136;3.502;2023-02-14T07:15:59;1.70;99.90
31799;DHT22;18374;51.136;3.502;2023-02-14T07:18:27;1.60;99.90
31799;DHT22;18374;51.136;3.502;2023-02-14T07:20:55;1.70;99.90
31799;DHT22;18374;51.136;3.502;2023-02-14T07:23:23;1.70;99.90
31799;DHT22;18374;51.136;3.502;2023-02-14T07:25:50;1.70;99.90
31799;DHT22;18374;51.136;3.502;2023-02-14T07:28:18;1.70;99.90
31799;DHT22;18374;51.136;3.502;2023-02-14T07:30:46;1.70;99.90
31799;DHT22;18374;51.136;3.502;2023-02-14T07:33:14;1.60;99.90
31799;DHT22;18374;51.136;3.502;2023-02-14T07:35:42;1.60;99.90
31799;DHT22;18374;51.136;3.502;2023-02-14T07:38:09;1.60;99.90
31799;DHT22;18374;51.136;3.502;2023-02-14T07:40:37;1.60;99.90
31799;DHT22;18374;51.136;3.502;2023-02-14T07:43:05;1.70;99.90
31799;DHT22;18374;51.136;3.502;2023-02-14T07:45:34;1.70;99.90
31799;DHT22;18374;51.136;3.502;2023-02-14T07:48:02;1.70;99.90
31799;DHT22;18374;51.136;3.502;2023-02-14T07:50:30;1.80;99.90
31799;DHT22;18374;51.136;3.502;2023-02-14T07:52:58;2.00;99.90
31799;DHT22;18374;51.136;3.502;2023-02-14T07:55:26;2.00;99.90
31799;DHT22;18374;51.136;3.502;2023-02-14T07:57:53;2.10;99.90
31799;DHT22;18374;51.136;3.502;2023-02-14T08:00:21;2.20;99.90
31799;DHT22;18374;51.136;3.502;2023-02-14T08:02:49;2.30;99.90
31799;DHT22;18374;51.136;3.502;2023-02-14T08:05:17;2.40;99.90
31799;DHT22;18374;51.136;3.502;2023-02-14T08:07:45;2.50;99.90
31799;DHT22;18374;51.136;3.502;2023-02-14T08:10:13;2.60;99.90
31799;DHT22;18374;51.136;3.502;2023-02-14T08:12:41;2.70;99.90
31799;DHT22;18374;51.136;3.502;2023-02-14T08:15:28;2.80;99.90
31799;DHT22;18374;51.136;3.502;2023-02-14T08:18:17;3.00;99.90
31799;DHT22;18374;51.136;3.502;2023-02-14T08:20:46;3.10;99.90
31799;DHT22;18374;51.136;3.502;2023-02-14T08:23:18;3.30;99.90
31799;DHT22;18374;51.136;3.502;2023-02-14T08:25:49;3.30;99.90
31799;DHT22;18374;51.136;3.502;2023-02-14T08:28:18;3.50;99.90
31799;DHT22;18374;51.136;3.502;2023-02-14T08:30:48;3.60;99.90
31799;DHT22;18374;51.136;3.502;2023-02-14T08:33:17;3.70;99.90
31799;DHT22;18374;51.136;3.502;2023-02-14T08:35:45;3.80;99.90
31799;DHT22;18374;51.136;3.502;2023-02-14T08:38:13;3.90;99.90
31799;DHT22;18374;51.136;3.502;2023-02-14T08:40:40;4.00;99.90
31799;DHT22;18374;51.136;3.502;2023-02-14T08:43:09;4.10;99.90
31799;DHT22;18374;51.136;3.502;2023-02-14T08:45:37;4.20;99.90
31799;DHT22;18374;51.136;3.502;2023-02-14T08:48:08;4.30;99.90
31799;DHT22;18374;51.136;3.502;2023-02-14T08:50:38;4.40;99.90
31799;DHT22;18374;51.136;3.502;2023-02-14T08:53:11;4.50;99.90
31799;DHT22;18374;51.136;3.502;2023-02-14T08:55:39;4.60;99.90
31799;DHT22;18374;51.136;3.502;2023-02-14T08:58:07;4.70;99.90
31799;DHT22;18374;51.136;3.502;2023-02-14T09:00:35;4.80;99.90
31799;DHT22;18374;51.136;3.502;2023-02-14T09:03:03;4.80;99.90
31799;DHT22;18374;51.136;3.502;2023-02-14T09:05:32;4.90;99.90
31799;DHT22;18374;51.136;3.502;2023-02-14T09:08:01;5.00;99.90
31799;DHT22;18374;51.136;3.502;2023-02-14T09:10:29;5.00;99.90
31799;DHT22;18374;51.136;3.502;2023-02-14T09:12:57;5.10;99.90
31799;DHT22;18374;51.136;3.502;2023-02-14T09:15:25;5.20;99.90
31799;DHT22;18374;51.136;3.502;2023-02-14T09:17:52;5.20;99.90
31799;DHT22;18374;51.136;3.502;2023-02-14T09:20:20;5.30;99.90
31799;DHT22;18374;51.136;3.502;2023-02-14T09:22:48;5.40;99.90
31799;DHT22;18374;51.136;3.502;2023-02-14T09:25:16;5.50;99.90
31799;DHT22;18374;51.136;3.502;2023-02-14T09:27:44;5.60;99.90
31799;DHT22;18374;51.136;3.502;2023-02-14T09:30:12;5.70;99.90
31799;DHT22;18374;51.136;3.502;2023-02-14T09:32:40;5.80;99.90
31799;DHT22;18374;51.136;3.502;2023-02-14T09:35:08;6.00;99.90
31799;DHT22;18374;51.136;3.502;2023-02-14T09:37:54;6.10;99.90
31799;DHT22;18374;51.136;3.502;2023-02-14T09:40:22;6.30;99.90
31799;DHT22;18374;51.136;3.502;2023-02-14T09:46:14;6.50;99.90
31799;DHT22;18374;51.136;3.502;2023-02-14T09:48:46;6.60;99.90
31799;DHT22;18374;51.136;3.502;2023-02-14T09:51:20;6.80;99.90
31799;DHT22;18374;51.136;3.502;2023-02-14T09:53:57;6.80;99.90
31799;DHT22;18374;51.136;3.502;2023-02-14T09:59:42;7.10;99.90
31799;DHT22;18374;51.136;3.502;2023-02-14T10:02:32;7.30;99.90
31799;DHT22;18374;51.136;3.502;2023-02-14T10:05:34;7.50;99.90
31799;DHT22;18374;51.136;3.502;2023-02-14T10:11:07;7.80;99.90
31799;DHT22;18374;51.136;3.502;2023-02-14T10:13:43;7.90;99.90
31799;DHT22;18374;51.136;3.502;2023-02-14T10:16:31;7.90;99.90
31799;DHT22;18374;51.136;3.502;2023-02-14T10:19:18;7.90;99.90
31799;DHT22;18374;51.136;3.502;2023-02-14T10:21:55;7.90;99.90
31799;DHT22;18374;51.136;3.502;2023-02-14T10:24:34;8.10;99.90
31799;DHT22;18374;51.136;3.502;2023-02-14T10:27:27;8.10;99.90
31799;DHT22;18374;51.136;3.502;2023-02-14T10:29:57;8.30;99.90
31799;DHT22;18374;51.136;3.502;2023-02-14T10:32:39;8.50;99.90
31799;DHT22;18374;51.136;3.502;2023-02-14T10:43:42;9.10;99.90
31799;DHT22;18374;51.136;3.502;2023-02-14T10:54:49;9.40;99.90
31799;DHT22;18374;51.136;3.502;2023-02-14T10:57:31;9.50;99.90
31799;DHT22;18374;51.136;3.502;2023-02-14T11:00:13;9.60;99.90
31799;DHT22;18374;51.136;3.502;2023-02-14T11:02:58;9.70;99.90
31799;DHT22;18374;51.136;3.502;2023-02-14T11:05:33;9.80;99.90
31799;DHT22;18374;51.136;3.502;2023-02-14T11:08:15;10.00;99.90
31799;DHT22;18374;51.136;3.502;2023-02-14T11:10:49;10.00;99.90
31799;DHT22;18374;51.136;3.502;2023-02-14T11:13:32;10.00;99.90
31799;DHT22;18374;51.136;3.502;2023-02-14T11:16:08;10.10;99.90
31799;DHT22;18374;51.136;3.502;2023-02-14T11:18:39;10.30;99.90
31799;DHT22;18374;51.136;3.502;2023-02-14T11:21:15;10.40;99.90
31799;DHT22;18374;51.136;3.502;2023-02-14T11:23:50;10.60;99.90
31799;DHT22;18374;51.136;3.502;2023-02-14T11:26:29;10.70;99.90
31799;DHT22;18374;51.136;3.502;2023-02-14T11:29:09;10.80;99.90
31799;DHT22;18374;51.136;3.502;2023-02-14T11:31:39;11.00;99.90
31799;DHT22;18374;51.136;3.502;2023-02-14T11:34:30;11.00;99.90
31799;DHT22;18374;51.136;3.502;2023-02-14T11:39:53;11.00;99.90
31799;DHT22;18374;51.136;3.502;2023-02-14T11:42:41;11.10;99.90
31799;DHT22;18374;51.136;3.502;2023-02-14T11:45:34;11.30;99.90
31799;DHT22;18374;51.136;3.502;2023-02-14T11:50:55;11.60;99.90
31799;DHT22;18374;51.136;3.502;2023-02-14T11:53:26;11.80;99.90
31799;DHT22;18374;51.136;3.502;2023-02-14T11:55:57;11.70;99.90
31799;DHT22;18374;51.136;3.502;2023-02-14T11:58:31;11.80;99.90
31799;DHT22;18374;51.136;3.502;2023-02-14T12:01:01;11.70;99.90
31799;DHT22;18374;51.136;3.502;2023-02-14T12:03:42;11.90;99.90
31799;DHT22;18374;51.136;3.502;2023-02-14T12:06:25;11.90;99.90
31799;DHT22;18374;51.136;3.502;2023-02-14T12:11:38;12.00;99.90
31799;DHT22;18374;51.136;3.502;2023-02-14T12:14:19;12.00;99.90
31799;DHT22;18374;51.136;3.502;2023-02-14T12:22:40;12.00;99.90
31799;DHT22;18374;51.136;3.502;2023-02-14T12:25:20;12.10;99.90
31799;DHT22;18374;51.136;3.502;2023-02-14T12:28:00;12.10;99.90
31799;DHT22;18374;51.136;3.502;2023-02-14T12:30:32;12.00;99.90
31799;DHT22;18374;51.136;3.502;2023-02-14T12:33:01;12.00;99.90
31799;DHT22;18374;51.136;3.502;2023-02-14T12:35:41;12.10;99.90
31799;DHT22;18374;51.136;3.502;2023-02-14T12:50:25;12.10;99.90
31799;DHT22;18374;51.136;3.502;2023-02-14T12:56:49;12.20;99.90
31799;DHT22;18374;51.136;3.502;2023-02-14T13:02:51;12.30;99.90
31799;DHT22;18374;51.136;3.502;2023-02-14T13:19:50;12.70;99.90
31799;DHT22;18374;51.136;3.502;2023-02-14T13:22:23;12.70;99.90
31799;DHT22;18374;51.136;3.502;2023-02-14T13:24:56;12.70;99.90
31799;DHT22;18374;51.136;3.502;2023-02-14T13:27:30;12.90;99.90
31799;DHT22;18374;51.136;3.502;2023-02-14T13:32:46;13.00;99.90
31799;DHT22;18374;51.136;3.502;2023-02-14T13:35:16;13.10;99.90
31799;DHT22;18374;51.136;3.502;2023-02-14T13:37:49;13.10;99.90
31799;DHT22;18374;51.136;3.502;2023-02-14T13:40:21;13.30;99.90
31799;DHT22;18374;51.136;3.502;2023-02-14T13:42:56;13.40;99.90
31799;DHT22;18374;51.136;3.502;2023-02-14T13:48:11;13.60;99.90
31799;DHT22;18374;51.136;3.502;2023-02-14T13:51:25;13.70;99.90
31799;DHT22;18374;51.136;3.502;2023-02-14T13:53:46;13.90;99.90
31799;DHT22;18374;51.136;3.502;2023-02-14T13:58:52;14.00;99.90
31799;DHT22;18374;51.136;3.502;2023-02-14T14:01:32;14.00;99.90
31799;DHT22;18374;51.136;3.502;2023-02-14T14:22:56;15.00;99.90
31799;DHT22;18374;51.136;3.502;2023-02-14T14:27:59;15.30;99.90
31799;DHT22;18374;51.136;3.502;2023-02-14T14:30:30;15.40;99.90
31799;DHT22;18374;51.136;3.502;2023-02-14T14:33:14;15.40;99.90
31799;DHT22;18374;51.136;3.502;2023-02-14T14:36:06;15.50;99.90
31799;DHT22;18374;51.136;3.502;2023-02-14T14:38:50;15.60;99.90
31799;DHT22;18374;51.136;3.502;2023-02-14T14:41:26;15.50;99.90
31799;DHT22;18374;51.136;3.502;2023-02-14T14:43:55;15.40;99.90
31799;DHT22;18374;51.136;3.502;2023-02-14T14:46:24;15.20;99.90
31799;DHT22;18374;51.136;3.502;2023-02-14T14:48:54;14.80;99.90
31799;DHT22;18374;51.136;3.502;2023-02-14T14:51:29;14.60;99.90
31799;DHT22;18374;51.136;3.502;2023-02-14T14:54:05;14.40;99.90
31799;DHT22;18374;51.136;3.502;2023-02-14T14:56:36;14.20;99.90
31799;DHT22;18374;51.136;3.502;2023-02-14T15:02:02;13.60;99.90
31799;DHT22;18374;51.136;3.502;2023-02-14T15:04:34;13.40;99.90
31799;DHT22;18374;51.136;3.502;2023-02-14T15:07:55;13.20;99.90
31799;DHT22;18374;51.136;3.502;2023-02-14T15:10:26;13.10;99.90
31799;DHT22;18374;51.136;3.502;2023-02-14T15:12:57;13.10;99.90
31799;DHT22;18374;51.136;3.502;2023-02-14T15:15:49;13.00;99.90
31799;DHT22;18374;51.136;3.502;2023-02-14T15:18:18;13.00;99.90
31799;DHT22;18374;51.136;3.502;2023-02-14T15:20:50;12.90;99.90
31799;DHT22;18374;51.136;3.502;2023-02-14T15:23:22;12.90;99.90
31799;DHT22;18374;51.136;3.502;2023-02-14T15:25:51;12.80;99.90
31799;DHT22;18374;51.136;3.502;2023-02-14T15:28:33;12.80;99.90
31799;DHT22;18374;51.136;3.502;2023-02-14T15:31:03;12.70;99.90
31799;DHT22;18374;51.136;3.502;2023-02-14T15:33:33;12.70;99.90
31799;DHT22;18374;51.136;3.502;2023-02-14T15:36:04;12.70;99.90
31799;DHT22;18374;51.136;3.502;2023-02-14T15:38:35;12.60;99.90
31799;DHT22;18374;51.136;3.502;2023-02-14T15:41:06;12.60;99.90
31799;DHT22;18374;51.136;3.502;2023-02-14T15:43:38;12.60;99.90
31799;DHT22;18374;51.136;3.502;2023-02-14T15:46:30;12.40;99.90
31799;DHT22;18374;51.136;3.502;2023-02-14T15:49:08;12.30;99.90
31799;DHT22;18374;51.136;3.502;2023-02-14T15:51:38;12.20;99.90
31799;DHT22;18374;51.136;3.502;2023-02-14T15:56:49;12.00;99.90
31799;DHT22;18374;51.136;3.502;2023-02-14T15:59:21;12.00;99.90
31799;DHT22;18374;51.136;3.502;2023-02-14T16:01:53;11.80;99.90
31799;DHT22;18374;51.136;3.502;2023-02-14T16:04:25;11.70;99.90
31799;DHT22;18374;51.136;3.502;2023-02-14T16:07:25;11.70;99.90
31799;DHT22;18374;51.136;3.502;2023-02-14T16:10:27;11.50;99.90
31799;DHT22;18374;51.136;3.502;2023-02-14T16:15:54;11.30;99.90
31799;DHT22;18374;51.136;3.502;2023-02-14T16:18:45;11.20;99.90
31799;DHT22;18374;51.136;3.502;2023-02-14T16:21:18;11.10;99.90
31799;DHT22;18374;51.136;3.502;2023-02-14T16:26:38;11.00;99.90
31799;DHT22;18374;51.136;3.502;2023-02-14T16:29:09;11.00;99.90
31799;DHT22;18374;51.136;3.502;2023-02-14T16:31:42;10.90;99.90
31799;DHT22;18374;51.136;3.502;2023-02-14T16:34:31;10.80;99.90
31799;DHT22;18374;51.136;3.502;2023-02-14T16:37:24;10.70;99.90
31799;DHT22;18374;51.136;3.502;2023-02-14T16:39:59;10.60;99.90
31799;DHT22;18374;51.136;3.502;2023-02-14T16:42:27;10.40;99.90
31799;DHT22;18374;51.136;3.502;2023-02-14T16:44:56;10.30;99.90
31799;DHT22;18374;51.136;3.502;2023-02-14T16:47:24;10.20;99.90
31799;DHT22;18374;51.136;3.502;2023-02-14T16:49:54;10.00;99.90
31799;DHT22;18374;51.136;3.502;2023-02-14T16:52:24;9.90;99.90
31799;DHT22;18374;51.136;3.502;2023-02-14T16:54:53;9.80;99.90
31799;DHT22;18374;51.136;3.502;2023-02-14T16:57:29;9.70;99.90
31799;DHT22;18374;51.136;3.502;2023-02-14T16:59:59;9.70;99.90
31799;DHT22;18374;51.136;3.502;2023-02-14T17:02:27;9.50;99.90
31799;DHT22;18374;51.136;3.502;2023-02-14T17:04:56;9.40;99.90
31799;DHT22;18374;51.136;3.502;2023-02-14T17:07:25;9.30;99.90
31799;DHT22;18374;51.136;3.502;2023-02-14T17:10:00;9.20;99.90
31799;DHT22;18374;51.136;3.502;2023-02-14T17:12:34;9.10;99.90
31799;DHT22;18374;51.136;3.502;2023-02-14T17:15:07;9.00;99.90
31799;DHT22;18374;51.136;3.502;2023-02-14T17:17:39;9.00;99.90
31799;DHT22;18374;51.136;3.502;2023-02-14T17:20:07;8.80;99.90
31799;DHT22;18374;51.136;3.502;2023-02-14T17:22:37;8.80;99.90
31799;DHT22;18374;51.136;3.502;2023-02-14T17:25:06;8.70;99.90
31799;DHT22;18374;51.136;3.502;2023-02-14T17:27:33;8.60;99.90
31799;DHT22;18374;51.136;3.502;2023-02-14T17:30:01;8.50;99.90
31799;DHT22;18374;51.136;3.502;2023-02-14T17:32:30;8.40;99.90
31799;DHT22;18374;51.136;3.502;2023-02-14T17:34:58;8.30;99.90
31799;DHT22;18374;51.136;3.502;2023-02-14T17:37:27;8.20;99.90
31799;DHT22;18374;51.136;3.502;2023-02-14T17:39:55;8.10;99.90
31799;DHT22;18374;51.136;3.502;2023-02-14T17:42:23;8.10;99.90
31799;DHT22;18374;51.136;3.502;2023-02-14T17:44:51;8.00;99.90
31799;DHT22;18374;51.136;3.502;2023-02-14T17:47:18;7.90;99.90
31799;DHT22;18374;51.136;3.502;2023-02-14T17:49:46;7.90;99.90
31799;DHT22;18374;51.136;3.502;2023-02-14T17:52:14;7.80;99.90
31799;DHT22;18374;51.136;3.502;2023-02-14T17:54:42;7.80;99.90
31799;DHT22;18374;51.136;3.502;2023-02-14T17:57:10;7.70;99.90
31799;DHT22;18374;51.136;3.502;2023-02-14T17:59:39;7.60;99.90
31799;DHT22;18374;51.136;3.502;2023-02-14T18:02:07;7.60;99.90
31799;DHT22;18374;51.136;3.502;2023-02-14T18:04:35;7.60;99.90
31799;DHT22;18374;51.136;3.502;2023-02-14T18:07:04;7.60;99.90
31799;DHT22;18374;51.136;3.502;2023-02-14T18:09:32;7.50;99.90
31799;DHT22;18374;51.136;3.502;2023-02-14T18:11:59;7.40;99.90
31799;DHT22;18374;51.136;3.502;2023-02-14T18:14:27;7.30;99.90
31799;DHT22;18374;51.136;3.502;2023-02-14T18:16:55;7.20;99.90
31799;DHT22;18374;51.136;3.502;2023-02-14T18:19:23;7.10;99.90
31799;DHT22;18374;51.136;3.502;2023-02-14T18:21:50;7.00;99.90
31799;DHT22;18374;51.136;3.502;2023-02-14T18:24:19;6.90;99.90
31799;DHT22;18374;51.136;3.502;2023-02-14T18:26:47;6.70;99.90
31799;DHT22;18374;51.136;3.502;2023-02-14T18:29:15;6.60;99.90
31799;DHT22;18374;51.136;3.502;2023-02-14T18:31:43;6.60;99.90
31799;DHT22;18374;51.136;3.502;2023-02-14T18:34:11;6.50;99.90
31799;DHT22;18374;51.136;3.502;2023-02-14T18:36:40;6.50;99.90
31799;DHT22;18374;51.136;3.502;2023-02-14T18:39:08;6.50;99.90
31799;DHT22;18374;51.136;3.502;2023-02-14T18:41:36;6.50;99.90
31799;DHT22;18374;51.136;3.502;2023-02-14T18:44:05;6.50;99.90
31799;DHT22;18374;51.136;3.502;2023-02-14T18:46:34;6.60;99.90
31799;DHT22;18374;51.136;3.502;2023-02-14T18:49:04;6.50;99.90
31799;DHT22;18374;51.136;3.502;2023-02-14T18:51:35;6.50;99.90
31799;DHT22;18374;51.136;3.502;2023-02-14T18:54:06;6.40;99.90
31799;DHT22;18374;51.136;3.502;2023-02-14T18:56:36;6.40;99.90
31799;DHT22;18374;51.136;3.502;2023-02-14T18:59:07;6.30;99.90